Time;durP1;ratioP1;P1;durP2;ratioP2;P2;SDS_P1;SDS_P2;PMS_P1;PMS_P2;Temp;Humidity;BMP_temperature;BMP_pressure;BME280_temperature;BME280_humidity;BME280_pressure;Samples;Min_cycle;Max_cycle;Signal;HPM_P1;HPM_P2
2022/01/19 00:02:22;;;;;;;;;6.00;6.00;;;;;21.39;48.91;102203.34;112214;1247;18319;-72
2022/01/19 00:04:48;;;;;;;;;9.00;8.00;;;;;21.37;48.92;102204.58;112219;1247;19212;-70
2022/01/19 00:07:14;;;;;;;;;9.00;9.00;;;;;21.39;49.12;102212.78;112242;1248;19231;-73
2022/01/19 00:09:40;;;;;;;;;6.00;6.00;;;;;21.39;49.12;102213.19;112265;1248;19551;-72
2022/01/19 00:12:06;;;;;;;;;10.00;8.50;;;;;21.39;48.96;102207.73;112279;1248;18611;-70
2022/01/19 00:14:32;;;;;;;;;10.00;8.00;;;;;21.39;48.86;102211.86;112251;1247;19450;-72
2022/01/19 00:16:57;;;;;;;;;8.00;8.00;;;;;21.40;48.81;102208.36;112280;1248;22250;-72
2022/01/19 00:19:23;;;;;;;;;8.00;8.00;;;;;21.40;48.84;102206.92;112263;1248;18479;-71
2022/01/19 00:21:49;;;;;;;;;8.50;7.00;;;;;21.40;48.70;102203.48;112968;1242;20179;-71
2022/01/19 00:24:15;;;;;;;;;8.00;8.00;;;;;21.38;48.89;102201.42;113048;1242;19497;-72
2022/01/19 00:26:42;;;;;;;;;8.00;8.00;;;;;21.39;48.74;102197.91;113011;1241;18598;-71
2022/01/19 00:29:07;;;;;;;;;8.00;8.00;;;;;21.39;48.68;102194.85;112995;1242;21626;-71
2022/01/19 00:31:33;;;;;;;;;8.00;7.00;;;;;21.39;48.81;102192.66;113023;1241;18285;-71
2022/01/19 00:33:59;;;;;;;;;9.00;8.50;;;;;21.38;48.68;102181.27;113041;1242;18743;-72
2022/01/19 00:36:26;;;;;;;;;8.00;8.00;;;;;21.38;48.68;102176.88;113033;1242;19113;-71
2022/01/19 00:38:52;;;;;;;;;9.00;8.00;;;;;21.38;48.79;102169.66;113039;1242;18962;-71
2022/01/19 00:41:18;;;;;;;;;6.00;6.00;;;;;21.39;48.61;102170.47;113048;1242;18461;-72
2022/01/19 00:43:44;;;;;;;;;6.00;6.00;;;;;21.39;48.46;102166.64;113039;1242;20558;-74
2022/01/19 00:46:10;;;;;;;;;5.50;5.50;;;;;21.39;48.53;102166.63;113030;1241;18735;-72
2022/01/19 00:48:36;;;;;;;;;8.50;7.00;;;;;21.39;48.62;102169.03;113040;1242;18450;-73
2022/01/19 00:51:02;;;;;;;;;8.00;8.00;;;;;21.39;48.68;102164.43;113078;1242;20190;-72
2022/01/19 00:53:28;;;;;;;;;9.50;7.00;;;;;21.39;48.55;102159.87;113034;1242;18422;-73
2022/01/19 00:55:56;;;;;;;;;8.00;8.00;;;;;21.36;48.40;102152.55;113019;1242;19661;-73
2022/01/19 00:58:22;;;;;;;;;8.00;8.00;;;;;21.38;48.28;102157.77;112989;1242;22604;-72
2022/01/19 01:00:48;;;;;;;;;6.00;6.00;;;;;21.39;48.52;102161.19;113012;1241;22536;-72
2022/01/19 01:03:14;;;;;;;;;8.00;8.00;;;;;21.38;48.30;102162.54;112998;1242;20897;-72
2022/01/19 01:05:40;;;;;;;;;8.50;8.00;;;;;21.40;48.36;102171.61;113085;1241;19223;-72
2022/01/19 01:08:06;;;;;;;;;8.33;6.00;;;;;21.40;48.36;102163.83;113084;1241;18899;-73
2022/01/19 01:10:40;;;;;;;;;8.00;8.00;;;;;21.39;48.33;102157.30;113023;1242;18656;-72
2022/01/19 01:13:20;;;;;;;;;8.00;7.33;;;;;21.39;48.32;102151.85;113067;1242;20831;-73
2022/01/19 01:16:01;;;;;;;;;8.33;6.00;;;;;21.39;48.24;102148.27;113028;1242;22326;-73
2022/01/19 01:18:27;;;;;;;;;8.00;8.00;;;;;21.40;48.22;102134.02;113033;1242;18852;-72
2022/01/19 01:20:53;;;;;;;;;5.00;5.00;;;;;21.39;48.19;102130.10;112971;1242;21385;-73
2022/01/19 01:23:19;;;;;;;;;9.00;9.00;;;;;21.38;48.10;102117.13;113089;1241;18784;-74
2022/01/19 01:25:45;;;;;;;;;8.00;8.00;;;;;21.39;48.18;102116.46;112793;1242;21183;-73
2022/01/19 01:28:11;;;;;;;;;6.00;6.00;;;;;21.39;48.23;102114.45;113036;1242;19371;-74
2022/01/19 01:30:37;;;;;;;;;6.00;6.00;;;;;21.38;48.05;102111.58;113031;1242;18539;-73
2022/01/19 01:33:03;;;;;;;;;8.00;6.00;;;;;21.35;48.10;102096.66;113059;1241;20959;-72
2022/01/19 01:35:29;;;;;;;;;8.00;8.00;;;;;21.38;48.20;102097.77;113057;1242;19050;-72
2022/01/19 01:37:55;;;;;;;;;8.00;8.00;;;;;21.38;48.10;102092.20;112839;1241;21481;-73
2022/01/19 01:40:24;;;;;;;;;9.50;7.00;;;;;21.37;48.09;102078.80;113111;1242;19577;-73
2022/01/19 01:42:50;;;;;;;;;8.00;8.00;;;;;21.38;48.01;102076.15;112963;1242;21038;-71
2022/01/19 01:45:18;;;;;;;;;7.00;6.00;;;;;21.38;47.94;102067.94;113022;1241;18237;-72
2022/01/19 01:47:48;;;;;;;;;8.00;6.00;;;;;21.38;47.93;102061.48;113027;1242;20116;-72
2022/01/19 01:53:28;;;;;;;;;6.67;6.00;;;;;21.38;48.01;102051.47;112244;1248;19817;-73
2022/01/19 01:55:54;;;;;;;;;8.00;8.00;;;;;21.38;47.75;102041.04;112252;1248;18675;-74
2022/01/19 01:58:19;;;;;;;;;6.00;6.00;;;;;21.38;47.96;102024.56;112217;1247;22117;-73
2022/01/19 02:00:45;;;;;;;;;5.50;5.00;;;;;21.37;47.83;102014.33;112237;1248;18265;-73
2022/01/19 02:03:12;;;;;;;;;6.00;6.00;;;;;21.37;47.89;102015.01;112245;1248;18572;-72
2022/01/19 02:05:47;;;;;;;;;9.00;6.67;;;;;21.37;48.00;102008.81;112226;1248;19558;-72
2022/01/19 02:08:20;;;;;;;;;9.33;8.00;;;;;21.37;47.66;101995.51;112256;1248;21783;-72
2022/01/19 02:11:01;;;;;;;;;5.00;5.00;;;;;21.37;47.79;101992.10;112239;1248;22966;-72
2022/01/19 02:16:21;;;;;;;;;9.00;8.00;;;;;21.38;47.59;102002.91;112237;1248;18371;-73
2022/01/19 02:21:39;;;;;;;;;6.00;6.00;;;;;21.38;47.81;102019.28;112255;1247;19457;-72
2022/01/19 02:24:06;;;;;;;;;5.00;5.00;;;;;21.35;47.81;102018.11;112223;1248;22759;-74
2022/01/19 02:26:47;;;;;;;;;6.00;6.00;;;;;21.37;47.68;102021.90;112222;1247;19013;-72
2022/01/19 02:29:24;;;;;;;;;5.00;5.00;;;;;21.37;47.59;102014.84;113023;1242;21405;-73
2022/01/19 02:36:34;;;;;;;;;8.00;6.00;;;;;21.37;47.50;102017.50;113028;1242;19663;-74
2022/01/19 02:40:13;;;;;;;;;8.00;6.00;;;;;21.35;47.75;101993.70;113085;1242;18917;-73
2022/01/19 02:42:41;;;;;;;;;8.00;6.00;;;;;21.36;47.57;101999.59;112981;1242;18720;-73
2022/01/19 02:50:36;;;;;;;;;6.00;6.00;;;;;21.36;47.45;101978.55;113039;1242;18596;-72
2022/01/19 02:53:02;;;;;;;;;6.00;5.50;;;;;21.35;47.46;101972.24;113095;1242;19103;-72
2022/01/19 02:55:29;;;;;;;;;6.00;6.00;;;;;21.34;47.58;101961.23;113085;1242;21929;-73
2022/01/19 02:57:55;;;;;;;;;5.00;5.00;;;;;21.35;47.46;101962.80;113042;1242;18679;-72
2022/01/19 03:08:45;;;;;;;;;6.00;6.00;;;;;21.35;47.28;101949.66;113093;1242;22057;-72
2022/01/19 03:11:11;;;;;;;;;8.33;8.00;;;;;21.35;47.43;101942.30;113061;1242;18422;-73
2022/01/19 03:13:37;;;;;;;;;5.00;5.00;;;;;21.33;47.21;101940.60;113054;1242;20519;-72
2022/01/19 03:16:03;;;;;;;;;6.00;6.00;;;;;21.34;47.35;101939.41;113078;1241;19197;-72
2022/01/19 03:18:28;;;;;;;;;6.00;5.00;;;;;21.33;47.43;101925.29;113140;1242;18206;-72
2022/01/19 03:20:54;;;;;;;;;5.00;5.00;;;;;21.34;47.27;101923.66;112973;1242;18461;-73
2022/01/19 03:23:20;;;;;;;;;8.00;6.00;;;;;21.33;47.22;101914.61;113080;1241;19199;-73
2022/01/19 03:25:46;;;;;;;;;8.67;6.00;;;;;21.33;47.35;101912.58;112992;1242;20095;-72
2022/01/19 03:28:12;;;;;;;;;8.00;6.00;;;;;21.33;47.27;101902.24;113026;1242;22179;-72
2022/01/19 03:30:38;;;;;;;;;5.00;5.00;;;;;21.34;47.11;101900.91;113009;1241;20876;-71
2022/01/19 03:33:04;;;;;;;;;8.00;6.00;;;;;21.34;47.05;101895.47;113024;1242;18273;-72
2022/01/19 03:35:30;;;;;;;;;6.00;6.00;;;;;21.33;47.30;101892.09;113047;1241;21374;-71
2022/01/19 03:37:56;;;;;;;;;8.50;6.00;;;;;21.33;47.20;101890.62;113053;1241;19224;-73
2022/01/19 03:40:22;;;;;;;;;5.00;5.00;;;;;21.32;47.00;101889.27;113038;1242;20347;-73
2022/01/19 03:42:48;;;;;;;;;5.50;5.50;;;;;21.33;47.10;101889.35;113007;1241;18657;-73
2022/01/19 03:45:14;;;;;;;;;5.00;5.00;;;;;21.33;47.22;101886.04;112983;1241;19323;-71
2022/01/19 03:47:44;;;;;;;;;5.00;5.00;;;;;21.33;47.24;101883.19;113028;1242;18599;-74
2022/01/19 03:50:10;;;;;;;;;4.00;4.00;;;;;21.33;47.17;101880.08;113103;1242;19276;-73
2022/01/19 03:52:36;;;;;;;;;4.00;4.00;;;;;21.33;47.08;101875.89;113096;1242;20784;-71
2022/01/19 03:55:02;;;;;;;;;8.00;7.00;;;;;21.33;47.19;101875.76;113062;1241;18714;-73
2022/01/19 03:57:28;;;;;;;;;5.00;5.00;;;;;21.32;47.08;101862.94;113044;1242;21136;-72
2022/01/19 03:59:54;;;;;;;;;4.50;4.00;;;;;21.32;47.14;101861.57;113030;1242;20628;-74
2022/01/19 04:02:20;;;;;;;;;6.00;5.00;;;;;21.32;47.00;101860.95;113043;1241;20746;-72
2022/01/19 04:04:50;;;;;;;;;8.00;6.00;;;;;21.30;47.06;101858.37;113029;1242;22931;-73
2022/01/19 04:07:16;;;;;;;;;5.67;5.00;;;;;21.33;47.16;101858.44;113008;1242;20823;-73
2022/01/19 04:09:42;;;;;;;;;6.00;5.00;;;;;21.33;47.10;101852.41;113066;1242;18617;-72
2022/01/19 04:12:08;;;;;;;;;6.00;5.00;;;;;21.33;46.99;101849.51;113048;1242;18434;-72
2022/01/19 04:14:34;;;;;;;;;5.00;5.00;;;;;21.33;47.12;101846.44;112994;1241;23444;-72
2022/01/19 04:17:00;;;;;;;;;6.00;6.00;;;;;21.32;47.11;101843.64;113044;1241;18672;-74
2022/01/19 04:19:31;;;;;;;;;5.00;5.00;;;;;21.32;47.05;101842.06;113033;1242;18396;-72
2022/01/19 04:21:57;;;;;;;;;4.00;4.00;;;;;21.32;46.92;101836.76;113038;1241;19544;-72
2022/01/19 04:24:23;;;;;;;;;6.00;6.00;;;;;21.31;46.98;101834.77;113043;1241;20251;-72
2022/01/19 04:26:58;;;;;;;;;5.00;5.00;;;;;21.32;46.98;101832.76;113048;1242;18378;-73
2022/01/19 04:29:24;;;;;;;;;4.33;4.33;;;;;21.31;47.04;101828.09;113005;1241;19431;-73
2022/01/19 04:31:50;;;;;;;;;5.00;4.00;;;;;21.31;46.80;101830.81;113033;1242;18707;-72
2022/01/19 04:34:17;;;;;;;;;6.00;5.50;;;;;21.31;46.87;101824.11;113033;1242;19796;-72
2022/01/19 04:37:10;;;;;;;;;4.67;4.00;;;;;21.32;47.02;101823.28;113039;1242;19347;-72
2022/01/19 04:45:21;;;;;;;;;4.33;4.33;;;;;21.32;47.04;101815.48;113079;1242;19898;-72
2022/01/19 04:48:15;;;;;;;;;5.00;5.00;;;;;21.31;46.88;101812.98;113063;1241;18633;-73
2022/01/19 05:01:45;;;;;;;;;5.00;5.00;;;;;21.31;46.85;101801.20;112221;1247;19837;-72
2022/01/19 05:04:24;;;;;;;;;5.00;5.00;;;;;21.31;46.93;101800.78;112253;1248;18521;-72
2022/01/19 05:07:02;;;;;;;;;4.00;4.00;;;;;21.31;46.79;101796.80;112189;1248;20223;-72
2022/01/19 05:09:52;;;;;;;;;5.33;5.00;;;;;21.31;46.71;101799.02;112095;1247;21239;-73
2022/01/19 05:14:58;;;;;;;;;6.00;5.33;;;;;21.32;46.69;101806.01;112264;1248;20068;-73
2022/01/19 05:17:24;;;;;;;;;5.50;5.00;;;;;21.32;46.70;101808.35;112219;1248;19190;-72
2022/01/19 05:19:50;;;;;;;;;5.00;4.00;;;;;21.31;46.79;101811.39;112223;1247;19856;-73
2022/01/19 05:22:16;;;;;;;;;6.00;5.00;;;;;21.32;46.72;101807.47;112217;1248;18571;-73
2022/01/19 05:24:41;;;;;;;;;4.00;4.00;;;;;21.31;46.73;101806.81;112226;1248;19755;-73
2022/01/19 05:27:07;;;;;;;;;4.00;4.00;;;;;21.30;46.78;101796.58;112263;1247;20087;-72
2022/01/19 05:29:33;;;;;;;;;4.00;4.00;;;;;21.29;46.75;101791.90;112243;1248;18425;-71
2022/01/19 05:31:59;;;;;;;;;5.00;5.00;;;;;21.29;46.66;101788.48;112265;1248;20137;-72
2022/01/19 05:34:25;;;;;;;;;5.00;5.00;;;;;21.29;46.81;101787.42;112932;1241;22913;-71
2022/01/19 05:36:51;;;;;;;;;4.50;4.50;;;;;21.29;46.65;101790.48;113026;1242;18449;-72
2022/01/19 05:39:17;;;;;;;;;5.00;4.00;;;;;21.30;46.75;101793.53;113017;1242;19921;-72
2022/01/19 05:41:42;;;;;;;;;5.00;5.00;;;;;21.29;46.71;101791.77;112995;1242;18322;-72
2022/01/19 05:44:08;;;;;;;;;4.00;4.00;;;;;21.29;46.63;101784.33;113008;1242;20303;-72
2022/01/19 05:46:35;;;;;;;;;5.50;5.00;;;;;21.29;46.73;101781.98;113032;1241;19216;-74
2022/01/19 05:49:01;;;;;;;;;4.33;4.33;;;;;21.29;46.80;101784.11;112996;1242;20545;-73
2022/01/19 05:51:27;;;;;;;;;4.00;4.00;;;;;21.26;46.67;101782.90;112985;1242;19182;-73
2022/01/19 05:53:53;;;;;;;;;5.00;5.00;;;;;21.29;46.60;101781.25;113008;1242;19332;-71
2022/01/19 05:56:19;;;;;;;;;5.00;5.00;;;;;21.27;46.53;101778.71;113008;1242;18725;-72
2022/01/19 05:58:44;;;;;;;;;5.50;5.50;;;;;21.29;46.63;101775.44;113012;1242;18984;-72
2022/01/19 06:01:10;;;;;;;;;8.50;6.00;;;;;21.29;46.63;101780.12;112979;1242;19316;-72
2022/01/19 06:03:36;;;;;;;;;4.00;4.00;;;;;21.30;46.63;101779.17;113015;1242;20554;-72
2022/01/19 06:06:02;;;;;;;;;6.50;5.00;;;;;21.30;46.70;101784.05;112991;1242;18419;-72
2022/01/19 06:08:41;;;;;;;;;5.00;5.00;;;;;21.30;46.57;101779.33;112941;1242;23034;-71
2022/01/19 06:11:07;;;;;;;;;5.00;4.00;;;;;21.29;46.59;101777.22;112902;1242;18684;-74
2022/01/19 06:13:34;;;;;;;;;2.00;2.00;;;;;21.27;46.68;101769.98;112874;1242;19274;-71
2022/01/19 06:16:00;;;;;;;;;5.67;5.00;;;;;21.28;46.48;101764.05;112953;1242;21677;-73
2022/01/19 06:18:26;;;;;;;;;6.00;5.50;;;;;21.29;46.58;101764.55;112994;1242;18549;-72
2022/01/19 06:20:52;;;;;;;;;5.50;5.00;;;;;21.28;46.56;101763.98;112997;1242;21986;-73
2022/01/19 06:23:17;;;;;;;;;5.00;5.00;;;;;21.29;46.63;101763.41;113004;1242;22092;-72
2022/01/19 06:25:43;;;;;;;;;5.00;5.00;;;;;21.30;46.67;101759.20;113020;1242;22422;-71
2022/01/19 06:28:09;;;;;;;;;4.00;4.00;;;;;21.29;46.52;101757.08;113006;1242;18366;-71
2022/01/19 06:30:35;;;;;;;;;4.50;4.00;;;;;21.29;46.44;101753.56;112999;1242;23088;-72
2022/01/19 06:33:01;;;;;;;;;5.00;5.00;;;;;21.29;46.72;101747.38;112950;1242;18416;-72
2022/01/19 06:35:27;;;;;;;;;4.00;4.00;;;;;21.29;46.56;101745.57;112990;1242;18567;-71
2022/01/19 06:37:53;;;;;;;;;6.00;5.00;;;;;21.29;46.39;101747.80;113000;1242;19373;-71
2022/01/19 06:40:19;;;;;;;;;5.00;4.00;;;;;21.29;46.41;101743.39;113016;1242;22256;-71
2022/01/19 06:42:45;;;;;;;;;5.00;5.00;;;;;21.30;46.39;101750.25;113030;1242;18789;-71
2022/01/19 06:45:11;;;;;;;;;6.00;6.00;;;;;21.29;46.42;101750.36;113017;1242;19860;-73
2022/01/19 06:47:54;;;;;;;;;6.67;5.33;;;;;21.28;46.60;101749.66;112968;1242;19118;-72
2022/01/19 06:50:39;;;;;;;;;4.00;4.00;;;;;21.29;46.56;101744.12;113008;1242;18637;-72
2022/01/19 06:53:05;;;;;;;;;5.00;5.00;;;;;21.31;46.46;101743.08;112980;1242;20706;-72
2022/01/19 06:55:31;;;;;;;;;6.00;5.50;;;;;21.30;46.26;101741.33;112964;1242;18253;-72
2022/01/19 06:57:57;;;;;;;;;5.00;5.00;;;;;21.29;46.42;101740.63;112991;1242;21035;-72
2022/01/19 07:00:23;;;;;;;;;5.00;5.00;;;;;21.30;46.43;101732.98;112971;1242;19226;-72
2022/01/19 07:02:49;;;;;;;;;5.00;5.00;;;;;21.29;46.60;101729.96;112992;1242;18362;-71
2022/01/19 07:05:14;;;;;;;;;5.00;5.00;;;;;21.29;46.46;101724.30;113022;1241;22950;-71
2022/01/19 07:07:40;;;;;;;;;6.00;5.00;;;;;21.29;46.46;101717.00;113014;1242;19242;-72
2022/01/19 07:10:07;;;;;;;;;6.00;5.00;;;;;21.32;46.72;101716.24;112993;1241;18843;-72
2022/01/19 07:12:33;;;;;;;;;6.00;6.00;;;;;21.36;46.62;101720.14;113030;1242;18887;-70
2022/01/19 07:14:59;;;;;;;;;6.00;6.00;;;;;21.38;46.67;101713.44;112996;1242;19229;-69
2022/01/19 07:17:25;;;;;;;;;6.00;6.00;;;;;21.39;47.04;101710.64;112992;1242;22384;-72
2022/01/19 07:19:51;;;;;;;;;6.00;6.00;;;;;21.38;47.46;101697.65;112967;1242;18930;-72
2022/01/19 07:22:16;;;;;;;;;8.00;6.00;;;;;21.39;47.21;101699.73;113029;1242;19859;-71
2022/01/19 07:24:42;;;;;;;;;7.00;6.00;;;;;21.39;47.48;101687.33;113084;1241;18256;-70
2022/01/19 07:27:08;;;;;;;;;9.00;8.00;;;;;21.40;47.76;101690.88;113094;1242;20609;-70
2022/01/19 07:29:34;;;;;;;;;9.00;9.00;;;;;21.40;47.65;101688.48;112957;1242;19226;-70
2022/01/19 07:32:00;;;;;;;;;8.00;8.00;;;;;21.38;48.15;101683.95;113004;1241;18922;-71
2022/01/19 07:34:26;;;;;;;;;9.00;8.00;;;;;21.39;48.21;101681.88;113033;1242;18642;-72
2022/01/19 07:36:52;;;;;;;;;13.00;10.00;;;;;21.37;48.18;101673.63;113013;1241;19989;-71
2022/01/19 07:39:18;;;;;;;;;10.00;9.50;;;;;21.41;48.24;101670.23;113019;1242;21170;-69
2022/01/19 07:41:44;;;;;;;;;9.00;8.00;;;;;21.47;48.39;101672.30;112972;1242;18491;-70
2022/01/19 07:44:10;;;;;;;;;9.00;8.00;;;;;21.51;48.65;101670.91;113119;1242;19743;-70
2022/01/19 07:46:36;;;;;;;;;8.00;6.00;;;;;21.54;48.98;101669.62;113100;1242;18780;-69
2022/01/19 07:49:01;;;;;;;;;9.00;8.50;;;;;21.54;48.81;101663.38;113062;1242;19173;-71
2022/01/19 07:51:27;;;;;;;;;10.00;10.00;;;;;21.55;48.78;101658.20;113010;1242;20618;-71
2022/01/19 07:53:53;;;;;;;;;9.00;9.00;;;;;21.53;48.51;101653.97;113008;1242;21450;-71
2022/01/19 07:56:19;;;;;;;;;14.00;12.00;;;;;21.53;48.62;101657.34;113156;1242;18451;-72
2022/01/19 07:58:45;;;;;;;;;13.00;11.00;;;;;21.51;48.54;101655.27;113059;1242;20811;-72
2022/01/19 08:01:11;;;;;;;;;12.00;10.00;;;;;21.50;48.86;101654.11;113065;1242;19380;-72
2022/01/19 08:03:37;;;;;;;;;10.00;10.00;;;;;21.48;49.14;101650.38;113011;1241;18437;-71
2022/01/19 08:06:02;;;;;;;;;18.00;13.00;;;;;21.49;49.27;101652.84;113032;1242;19191;-72
2022/01/19 08:08:28;;;;;;;;;12.00;12.00;;;;;21.49;48.83;101651.92;113050;1242;21042;-70
2022/01/19 08:10:54;;;;;;;;;12.00;12.00;;;;;21.46;49.05;101648.38;113080;1241;18993;-71
2022/01/19 08:13:21;;;;;;;;;10.00;10.00;;;;;21.43;48.81;101647.58;113064;1242;19249;-69
2022/01/19 08:15:47;;;;;;;;;15.00;13.33;;;;;21.45;48.94;101639.02;113003;1242;20875;-70
2022/01/19 08:18:13;;;;;;;;;13.50;13.00;;;;;21.41;48.97;101634.91;113037;1242;18394;-70
2022/01/19 08:20:42;;;;;;;;;17.00;16.00;;;;;21.44;49.04;101634.80;113037;1242;19147;-69
2022/01/19 08:23:08;;;;;;;;;14.33;12.33;;;;;21.48;49.08;101634.56;113056;1241;19182;-69
2022/01/19 08:25:34;;;;;;;;;18.00;16.00;;;;;21.51;48.70;101633.88;113110;1241;18715;-68
2022/01/19 08:27:59;;;;;;;;;14.50;13.50;;;;;21.49;48.54;101631.90;113012;1242;19234;-69
2022/01/19 08:30:25;;;;;;;;;14.00;14.00;;;;;21.47;48.77;101630.27;112977;1241;23285;-69
2022/01/19 08:32:51;;;;;;;;;16.50;14.00;;;;;21.47;49.07;101627.58;112920;1242;20733;-70
2022/01/19 08:35:17;;;;;;;;;17.00;14.00;;;;;21.48;48.73;101621.06;113034;1241;19497;-70
2022/01/19 08:37:43;;;;;;;;;16.50;13.50;;;;;21.50;49.02;101617.99;113000;1242;19798;-69
2022/01/19 08:40:09;;;;;;;;;16.00;14.00;;;;;21.52;48.90;101614.12;113062;1242;18653;-69
2022/01/19 08:42:36;;;;;;;;;16.00;15.00;;;;;21.52;48.53;101609.33;113148;1242;21265;-69
2022/01/19 08:45:05;;;;;;;;;14.67;13.67;;;;;21.52;48.37;101608.67;113079;1242;19186;-69
2022/01/19 08:47:31;;;;;;;;;14.67;14.00;;;;;21.53;48.53;101608.23;113088;1241;22371;-69
2022/01/19 08:49:57;;;;;;;;;12.50;11.00;;;;;21.51;48.81;101606.71;113059;1242;20720;-68
2022/01/19 08:52:23;;;;;;;;;13.50;13.50;;;;;21.51;48.99;101602.41;113123;1242;18665;-70
2022/01/19 08:54:49;;;;;;;;;13.00;10.00;;;;;21.49;49.27;101600.94;113007;1241;19198;-69
2022/01/19 08:57:15;;;;;;;;;12.50;12.50;;;;;21.50;49.42;101607.21;113052;1242;19403;-70
2022/01/19 08:59:41;;;;;;;;;15.00;14.00;;;;;21.52;48.93;101605.58;113013;1242;18368;-70
2022/01/19 09:02:07;;;;;;;;;13.00;12.00;;;;;21.55;49.05;101597.02;113083;1242;19178;-70
2022/01/19 09:04:32;;;;;;;;;16.00;14.00;;;;;21.53;49.16;101590.02;113020;1242;22053;-69
2022/01/19 09:06:59;;;;;;;;;12.50;12.50;;;;;21.50;49.26;101588.54;113007;1242;19179;-69
2022/01/19 09:09:25;;;;;;;;;13.67;13.67;;;;;21.51;49.35;101585.89;112924;1241;20184;-69
2022/01/19 09:11:51;;;;;;;;;12.50;12.00;;;;;21.55;49.11;101579.30;112922;1242;19451;-70
2022/01/19 09:14:17;;;;;;;;;12.00;12.00;;;;;21.56;49.51;101574.96;112908;1241;18530;-71
2022/01/19 09:16:45;;;;;;;;;22.00;18.00;;;;;21.55;49.28;101577.29;112950;1242;18597;-70
2022/01/19 09:19:12;;;;;;;;;28.67;27.33;;;;;21.53;49.18;101575.43;112979;1242;21452;-70
2022/01/19 09:21:38;;;;;;;;;32.50;29.00;;;;;21.50;48.96;101569.92;112935;1241;19388;-70
2022/01/19 09:24:04;;;;;;;;;70.00;53.00;;;;;21.50;48.89;101565.39;112965;1242;19313;-73
2022/01/19 09:26:30;;;;;;;;;84.00;63.33;;;;;21.49;48.82;101568.24;112940;1242;22979;-73
2022/01/19 09:28:56;;;;;;;;;86.67;62.67;;;;;21.50;48.79;101567.39;112985;1242;18912;-74
2022/01/19 09:31:22;;;;;;;;;90.00;65.67;;;;;21.48;48.69;101562.58;112997;1242;19025;-73
2022/01/19 09:33:55;;;;;;;;;124.67;97.00;;;;;21.47;48.73;101556.61;112974;1242;19315;-69
2022/01/19 09:36:31;;;;;;;;;129.00;97.67;;;;;21.48;49.07;101546.94;112958;1242;18757;-72
2022/01/19 09:38:57;;;;;;;;;114.00;85.67;;;;;21.49;49.01;101543.16;112994;1241;19010;-71
2022/01/19 09:41:23;;;;;;;;;121.00;95.00;;;;;21.50;48.69;101544.28;112901;1242;19267;-71
2022/01/19 09:43:49;;;;;;;;;106.00;87.00;;;;;21.52;49.13;101535.24;112995;1241;21659;-71
2022/01/19 09:46:14;;;;;;;;;102.67;76.67;;;;;21.49;49.52;101528.55;112994;1242;18676;-71
2022/01/19 09:48:40;;;;;;;;;99.00;73.67;;;;;21.54;49.29;101526.48;113098;1242;19227;-75
2022/01/19 09:51:06;;;;;;;;;102.67;73.67;;;;;21.55;49.71;101521.19;113003;1242;18918;-73
2022/01/19 09:53:32;;;;;;;;;95.50;69.50;;;;;21.56;49.69;101521.80;113013;1242;18557;-75
2022/01/19 09:55:58;;;;;;;;;94.33;69.00;;;;;21.58;49.37;101517.59;112922;1242;19464;-73
2022/01/19 09:58:24;;;;;;;;;91.67;64.00;;;;;21.59;49.50;101509.52;112782;1242;18642;-71
2022/01/19 10:00:50;;;;;;;;;83.33;60.67;;;;;21.61;49.72;101512.45;113108;1241;18545;-73
2022/01/19 10:03:16;;;;;;;;;77.67;57.00;;;;;21.55;49.18;101516.52;113094;1241;19655;-71
2022/01/19 10:05:42;;;;;;;;;73.00;55.00;;;;;21.44;48.54;101513.30;113064;1241;19899;-72
2022/01/19 10:08:08;;;;;;;;;67.67;51.67;;;;;21.37;48.17;101512.57;113066;1242;18686;-71
2022/01/19 10:10:33;;;;;;;;;66.67;54.00;;;;;21.27;47.38;101511.61;112976;1242;22180;-70
2022/01/19 10:18:29;;;;;;;;;59.67;44.67;;;;;20.94;46.16;101503.45;113008;1242;22815;-70
2022/01/19 10:20:55;;;;;;;;;58.67;43.67;;;;;20.91;45.52;101499.45;112999;1242;20087;-77
2022/01/19 10:23:21;;;;;;;;;53.33;43.33;;;;;20.82;45.01;101492.77;112913;1242;18581;-74
2022/01/19 10:25:47;;;;;;;;;55.00;43.00;;;;;20.93;44.99;101493.94;112841;1241;19398;-75
2022/01/19 10:28:13;;;;;;;;;56.00;42.00;;;;;21.02;44.99;101483.50;112856;1241;18661;-74
2022/01/19 10:30:39;;;;;;;;;50.67;42.67;;;;;21.13;45.27;101477.36;112998;1242;18610;-73
2022/01/19 10:33:05;;;;;;;;;48.00;41.00;;;;;21.23;45.45;101474.42;112918;1242;19321;-74
2022/01/19 10:35:31;;;;;;;;;52.00;38.33;;;;;21.32;45.84;101474.57;112948;1242;18425;-73
2022/01/19 10:37:57;;;;;;;;;51.33;42.33;;;;;21.35;45.98;101469.02;112949;1242;22739;-74
2022/01/19 10:40:22;;;;;;;;;45.33;38.33;;;;;21.44;46.35;101476.43;112992;1242;19224;-74
2022/01/19 10:42:48;;;;;;;;;44.33;38.00;;;;;21.43;46.51;101473.58;112967;1241;18401;-73
2022/01/19 10:45:14;;;;;;;;;46.33;39.67;;;;;21.45;47.17;101469.58;112999;1242;19858;-76
2022/01/19 10:47:40;;;;;;;;;48.50;39.00;;;;;21.46;47.19;101467.84;112976;1242;19383;-77
2022/01/19 10:50:06;;;;;;;;;45.67;39.00;;;;;21.45;47.48;101467.22;112930;1242;22336;-75
2022/01/19 10:52:32;;;;;;;;;43.50;36.50;;;;;21.42;47.19;101460.41;112970;1242;18790;-83
2022/01/19 10:54:58;;;;;;;;;46.00;37.50;;;;;21.42;47.45;101453.90;112960;1241;19213;-80
2022/01/19 10:57:24;;;;;;;;;39.00;36.50;;;;;21.45;47.78;101447.39;112952;1242;18416;-80
2022/01/19 10:59:50;;;;;;;;;37.50;33.50;;;;;21.48;47.81;101439.27;112974;1241;18653;-78
2022/01/19 11:02:16;;;;;;;;;36.33;35.00;;;;;21.53;48.19;101432.59;112909;1242;19536;-77
2022/01/19 11:04:42;;;;;;;;;48.50;40.00;;;;;21.58;49.55;101433.02;112966;1241;20200;-78
2022/01/19 11:07:08;;;;;;;;;43.00;36.67;;;;;21.64;51.00;101428.82;112975;1242;18939;-74
2022/01/19 11:09:35;;;;;;;;;44.00;37.00;;;;;21.67;51.68;101428.52;112941;1242;19174;-75
2022/01/19 11:12:03;;;;;;;;;39.00;34.33;;;;;21.64;51.79;101420.77;112939;1242;19794;-78
2022/01/19 11:14:29;;;;;;;;;44.33;36.33;;;;;21.63;51.87;101420.34;112926;1242;19298;-74
2022/01/19 11:16:54;;;;;;;;;42.67;36.33;;;;;21.62;51.56;101419.73;112986;1242;19239;-73
2022/01/19 11:19:20;;;;;;;;;48.00;38.00;;;;;21.61;51.69;101416.73;112971;1241;18520;-75
2022/01/19 11:21:46;;;;;;;;;46.00;35.50;;;;;21.61;51.89;101415.84;112915;1242;20123;-74
2022/01/19 11:24:12;;;;;;;;;45.00;34.50;;;;;21.61;51.82;101407.83;112867;1242;23131;-74
2022/01/19 11:26:38;;;;;;;;;39.00;36.00;;;;;21.60;51.59;101409.73;112917;1242;18562;-72
2022/01/19 11:29:04;;;;;;;;;73.00;57.33;;;;;21.57;51.30;101412.75;112929;1242;18872;-74
2022/01/19 11:31:30;;;;;;;;;298.50;252.25;;;;;21.48;50.28;101412.29;112653;1241;21366;-70
2022/01/19 11:33:57;;;;;;;;;290.50;245.00;;;;;21.08;49.17;101406.60;112941;1242;18627;-75
2022/01/19 11:36:22;;;;;;;;;287.25;239.25;;;;;20.84;48.64;101399.67;112915;1242;19371;-71
2022/01/19 11:38:48;;;;;;;;;274.50;230.75;;;;;21.02;48.90;101393.02;113021;1242;19362;-70
2022/01/19 11:41:14;;;;;;;;;240.75;208.50;;;;;21.18;48.84;101390.27;113032;1242;20782;-73
2022/01/19 11:43:40;;;;;;;;;226.25;193.00;;;;;21.21;48.31;101388.16;113007;1242;18606;-72
2022/01/19 11:46:07;;;;;;;;;184.50;168.00;;;;;21.12;48.05;101387.66;113033;1242;19103;-68
2022/01/19 11:48:35;;;;;;;;;188.25;151.00;;;;;21.07;47.48;101380.84;113049;1242;19362;-73
2022/01/19 11:51:01;;;;;;;;;149.00;129.75;;;;;21.02;46.69;101370.56;113000;1242;18850;-71
2022/01/19 11:53:26;;;;;;;;;149.00;126.50;;;;;20.96;46.17;101364.52;112947;1242;19363;-72
2022/01/19 11:55:52;;;;;;;;;144.00;125.67;;;;;20.89;45.89;101359.23;113029;1242;18717;-73
2022/01/19 11:58:20;;;;;;;;;136.00;118.33;;;;;20.88;45.72;101347.30;112994;1241;18744;-68
2022/01/19 12:00:46;;;;;;;;;137.25;114.50;;;;;21.00;45.94;101341.70;112949;1242;20745;-71
2022/01/19 12:03:12;;;;;;;;;124.00;107.50;;;;;21.12;46.01;101340.76;112915;1241;18864;-71